createdAt,value
2023-05-15T00:00:53.156Z,11.53
2023-05-15T00:03:21.322Z,11.44
2023-05-15T00:05:49.406Z,11.24
2023-05-15T00:08:17.513Z,11.15
2023-05-15T00:10:54.150Z,11.05
2023-05-15T00:13:30.547Z,11.02
2023-05-15T00:15:58.582Z,11.01
2023-05-15T00:18:27.441Z,11.09
2023-05-15T00:20:55.603Z,11.05
2023-05-15T00:23:23.573Z,11.17
2023-05-15T00:25:51.898Z,11.18
2023-05-15T00:28:19.946Z,11.26
2023-05-15T00:30:49.296Z,11.25
2023-05-15T00:33:17.286Z,11.38
2023-05-15T00:35:46.104Z,11.41
2023-05-15T00:38:14.167Z,11.41
2023-05-15T00:40:43.829Z,11.29
2023-05-15T00:43:13.356Z,11.11
2023-05-15T00:45:43.387Z,11.00
2023-05-15T00:48:13.315Z,10.99
2023-05-15T00:50:42.513Z,10.91
2023-05-15T00:53:10.807Z,11.00
2023-05-15T00:55:40.490Z,11.07
2023-05-15T00:58:09.220Z,11.08
2023-05-15T01:00:37.866Z,10.99
2023-05-15T01:03:06.543Z,10.95
2023-05-15T01:05:36.231Z,10.92
2023-05-15T01:08:13.565Z,11.05
2023-05-15T01:10:44.141Z,11.01
2023-05-15T01:13:14.639Z,10.87
2023-05-15T01:15:42.846Z,10.81
2023-05-15T01:18:10.914Z,10.88
2023-05-15T01:20:57.158Z,10.87
2023-05-15T01:23:32.303Z,10.90
2023-05-15T01:26:30.364Z,10.94
2023-05-15T01:29:05.873Z,10.91
2023-05-15T01:31:39.151Z,10.81
2023-05-15T01:34:10.564Z,10.68
2023-05-15T01:36:44.005Z,10.73
2023-05-15T01:39:12.893Z,10.86
2023-05-15T01:41:46.586Z,10.77
2023-05-15T01:44:21.014Z,10.74
2023-05-15T01:46:52.551Z,10.73
2023-05-15T01:49:25.827Z,10.76
2023-05-15T01:52:02.755Z,10.96
2023-05-15T01:54:32.049Z,10.93
2023-05-15T01:57:00.531Z,10.89
2023-05-15T01:59:30.740Z,10.90
2023-05-15T02:01:59.726Z,10.90
2023-05-15T02:04:28.232Z,10.93
2023-05-15T02:06:56.879Z,10.90
2023-05-15T02:09:25.936Z,10.94
2023-05-15T02:11:55.144Z,10.85
2023-05-15T02:14:24.790Z,10.84
2023-05-15T02:16:54.084Z,10.83
2023-05-15T02:19:22.060Z,10.86
2023-05-15T02:21:50.416Z,10.62
2023-05-15T02:24:18.407Z,10.52
2023-05-15T02:26:55.526Z,10.50
2023-05-15T02:29:32.631Z,10.37
2023-05-15T02:32:08.491Z,10.25
2023-05-15T02:34:43.593Z,10.25
2023-05-15T02:37:14.992Z,10.22
2023-05-15T02:39:46.052Z,10.18
2023-05-15T02:42:15.462Z,10.24
2023-05-15T02:44:44.434Z,10.22
2023-05-15T02:47:14.804Z,10.26
2023-05-15T02:49:43.194Z,10.35
2023-05-15T02:52:11.172Z,10.31
2023-05-15T02:54:39.262Z,10.23
2023-05-15T02:57:08.030Z,10.21
2023-05-15T02:59:36.337Z,10.11
2023-05-15T03:02:05.464Z,10.03
2023-05-15T03:04:34.863Z,9.99
2023-05-15T03:07:02.913Z,9.97
2023-05-15T03:09:30.910Z,10.02
2023-05-15T03:11:58.860Z,10.09
2023-05-15T03:14:26.880Z,10.07
2023-05-15T03:16:54.982Z,9.99
2023-05-15T03:19:22.984Z,10.02
2023-05-15T03:21:52.324Z,10.10
2023-05-15T03:24:20.981Z,10.09
2023-05-15T03:26:48.921Z,10.00
2023-05-15T03:29:16.898Z,9.86
2023-05-15T03:31:44.950Z,9.88
2023-05-15T03:34:13.028Z,9.68
2023-05-15T03:36:41.121Z,9.67
2023-05-15T03:39:10.586Z,9.70
2023-05-15T03:41:38.562Z,9.74
2023-05-15T03:44:06.979Z,9.81
2023-05-15T03:46:34.946Z,9.91
2023-05-15T03:49:02.936Z,9.98
2023-05-15T03:51:31.106Z,10.00
2023-05-15T03:53:59.057Z,9.94
2023-05-15T03:56:28.402Z,9.93
2023-05-15T03:58:56.404Z,9.78
2023-05-15T04:01:24.447Z,9.80
2023-05-15T04:03:52.433Z,9.77
2023-05-15T04:06:20.431Z,9.72
2023-05-15T04:08:48.390Z,9.68
2023-05-15T04:11:16.398Z,9.68
2023-05-15T04:13:45.734Z,9.71
2023-05-15T04:16:14.367Z,9.68
2023-05-15T04:18:42.500Z,9.66
2023-05-15T04:21:10.572Z,9.71
2023-05-15T04:23:39.808Z,9.80
2023-05-15T04:26:08.210Z,9.94
2023-05-15T04:28:36.155Z,10.06
2023-05-15T04:31:05.511Z,10.20
2023-05-15T04:33:33.480Z,10.35
2023-05-15T04:36:01.941Z,10.40
2023-05-15T04:38:30.181Z,10.35
2023-05-15T04:40:58.188Z,10.40
2023-05-15T04:43:26.124Z,10.40
2023-05-15T04:45:54.198Z,10.43
2023-05-15T04:48:23.589Z,10.47
2023-05-15T04:50:51.876Z,10.51
2023-05-15T04:53:19.835Z,10.58
2023-05-15T04:55:51.259Z,10.73
2023-05-15T04:58:19.355Z,10.82
2023-05-15T05:00:47.335Z,10.64
2023-05-15T05:03:15.389Z,10.91
2023-05-15T05:05:44.860Z,10.95
2023-05-15T05:08:12.876Z,10.97
2023-05-15T05:10:40.925Z,11.06
2023-05-15T05:13:08.945Z,11.09
2023-05-15T05:15:37.133Z,11.19
2023-05-15T05:18:05.989Z,11.27
2023-05-15T05:20:34.109Z,11.36
2023-05-15T05:23:03.395Z,11.48
2023-05-15T05:25:31.437Z,11.50
2023-05-15T05:27:59.397Z,11.53
2023-05-15T05:30:27.392Z,11.61
2023-05-15T05:32:55.536Z,11.67
2023-05-15T05:35:23.783Z,11.72
2023-05-15T05:37:51.881Z,11.78
2023-05-15T05:40:21.241Z,11.84
2023-05-15T05:42:49.230Z,11.89
2023-05-15T05:45:17.411Z,11.97
2023-05-15T05:47:45.547Z,12.08
2023-05-15T05:50:13.525Z,12.23
2023-05-15T05:52:41.537Z,12.32
2023-05-15T05:55:10.357Z,12.40
2023-05-15T05:57:39.768Z,12.47
2023-05-15T06:00:09.726Z,12.55
2023-05-15T06:02:38.500Z,12.57
2023-05-15T06:05:08.585Z,12.68
2023-05-15T06:07:36.895Z,12.73
2023-05-15T06:10:05.321Z,12.79
2023-05-15T06:12:33.290Z,12.82
2023-05-15T06:15:02.709Z,12.89
2023-05-15T06:17:30.735Z,12.95
2023-05-15T06:19:58.759Z,12.98
2023-05-15T06:22:26.801Z,13.02
2023-05-15T06:24:54.808Z,13.07
2023-05-15T06:27:23.489Z,13.10
2023-05-15T06:29:51.501Z,13.16
2023-05-15T06:32:20.926Z,13.27
2023-05-15T06:34:48.985Z,13.35
2023-05-15T06:37:17.100Z,13.42
2023-05-15T06:39:45.175Z,13.48
2023-05-15T06:42:15.093Z,13.55
2023-05-15T06:44:43.153Z,13.61
2023-05-15T06:47:11.112Z,13.71
2023-05-15T06:49:40.649Z,13.81
2023-05-15T06:52:08.718Z,13.88
2023-05-15T06:54:36.814Z,13.87
2023-05-15T06:57:05.118Z,13.90
2023-05-15T06:59:35.532Z,13.94
2023-05-15T07:02:03.687Z,14.05
2023-05-15T07:04:32.150Z,14.14
2023-05-15T07:07:01.532Z,14.37
2023-05-15T07:09:29.557Z,14.41
2023-05-15T07:11:57.660Z,14.51
2023-05-15T07:14:25.651Z,14.64
2023-05-15T07:16:53.641Z,14.69
2023-05-15T07:19:21.934Z,14.88
2023-05-15T07:21:50.005Z,14.88
2023-05-15T07:24:19.435Z,14.90
2023-05-15T07:26:58.163Z,15.03
2023-05-15T07:29:27.109Z,15.17
2023-05-15T07:31:55.339Z,15.19
2023-05-15T07:34:23.721Z,15.23
2023-05-15T07:36:51.788Z,15.25
2023-05-15T07:39:21.200Z,15.29
2023-05-15T07:41:49.255Z,15.51
2023-05-15T07:44:17.354Z,15.62
2023-05-15T07:46:46.079Z,15.63
2023-05-15T07:49:14.194Z,15.70
2023-05-15T07:51:42.733Z,15.79
2023-05-15T07:54:10.852Z,15.91
2023-05-15T07:56:40.285Z,16.07
2023-05-15T07:59:08.664Z,16.28
2023-05-15T08:01:36.733Z,16.35
2023-05-15T08:04:08.267Z,16.46
2023-05-15T08:06:38.047Z,16.55
2023-05-15T08:09:06.056Z,16.58
2023-05-15T08:11:34.126Z,16.66
2023-05-15T08:14:03.571Z,16.79
2023-05-15T08:16:31.835Z,16.84
2023-05-15T08:19:03.606Z,16.94
2023-05-15T08:21:32.411Z,16.95
2023-05-15T08:24:01.213Z,17.16
2023-05-15T08:26:29.214Z,17.09
2023-05-15T08:28:57.174Z,17.21
2023-05-15T08:31:26.549Z,17.21
2023-05-15T08:33:54.571Z,17.24
2023-05-15T08:36:22.698Z,17.27
2023-05-15T08:38:50.665Z,17.28
2023-05-15T08:41:39.207Z,17.30
2023-05-15T08:44:10.976Z,17.23
2023-05-15T08:46:41.297Z,17.32
2023-05-15T08:49:17.446Z,17.53
2023-05-15T08:51:45.663Z,17.46
2023-05-15T08:54:14.097Z,17.52
2023-05-15T08:56:43.142Z,17.62
2023-05-15T08:59:11.726Z,17.57
2023-05-15T09:01:41.157Z,17.72
2023-05-15T09:04:09.441Z,17.75
2023-05-15T09:06:39.374Z,17.79
2023-05-15T09:09:07.942Z,17.84
2023-05-15T09:11:37.334Z,17.91
2023-05-15T09:14:07.557Z,17.87
2023-05-15T09:16:35.710Z,18.06
2023-05-15T09:19:06.482Z,18.08
2023-05-15T09:21:35.623Z,18.19
2023-05-15T09:24:21.585Z,18.26
2023-05-15T09:27:02.999Z,18.28
2023-05-15T09:29:31.584Z,18.43
2023-05-15T09:32:04.094Z,18.55
2023-05-15T09:34:34.901Z,18.52
2023-05-15T09:37:04.637Z,18.65
2023-05-15T09:39:32.826Z,18.65
2023-05-15T09:42:11.472Z,18.96
2023-05-15T09:44:43.090Z,18.87
2023-05-15T09:47:11.716Z,18.81
2023-05-15T09:49:44.756Z,18.85
2023-05-15T09:52:12.888Z,18.73
2023-05-15T09:54:41.245Z,18.76
2023-05-15T09:57:10.391Z,18.64
2023-05-15T09:59:45.106Z,18.68
2023-05-15T10:02:16.224Z,18.65
2023-05-15T10:04:45.574Z,18.72
2023-05-15T10:07:13.715Z,18.72
2023-05-15T10:09:41.796Z,18.75
2023-05-15T10:12:10.912Z,18.94
2023-05-15T10:14:39.162Z,19.05
2023-05-15T10:17:07.713Z,19.08
2023-05-15T10:19:44.080Z,19.03
2023-05-15T10:22:19.981Z,19.16
2023-05-15T10:24:49.906Z,19.17
2023-05-15T10:27:19.254Z,19.24
2023-05-15T10:29:47.996Z,19.21
2023-05-15T10:32:16.937Z,19.16
2023-05-15T10:34:45.946Z,19.15
2023-05-15T10:37:16.315Z,19.14
2023-05-15T10:39:46.612Z,19.13
2023-05-15T10:42:14.860Z,19.28
2023-05-15T10:44:42.882Z,19.35
2023-05-15T10:47:11.592Z,19.34
2023-05-15T10:49:39.855Z,19.36
2023-05-15T10:52:07.988Z,19.67
2023-05-15T10:54:37.729Z,19.64
2023-05-15T10:57:06.757Z,19.68
2023-05-15T10:59:35.426Z,19.88
2023-05-15T11:02:23.488Z,20.03
2023-05-15T11:04:56.848Z,19.91
2023-05-15T11:07:25.641Z,20.19
2023-05-15T11:09:55.633Z,20.26
2023-05-15T11:12:24.598Z,20.47
2023-05-15T11:15:21.076Z,20.62
2023-05-15T11:18:05.361Z,20.70
2023-05-15T11:20:36.460Z,20.61
2023-05-15T11:23:05.175Z,20.56
2023-05-15T11:25:36.737Z,20.46
2023-05-15T11:28:05.735Z,20.29
2023-05-15T11:30:38.770Z,20.28
2023-05-15T11:33:11.598Z,20.10
2023-05-15T11:35:42.159Z,20.20
2023-05-15T11:38:15.356Z,20.06
2023-05-15T11:40:48.820Z,19.99
2023-05-15T11:43:22.201Z,19.96
2023-05-15T11:45:55.482Z,19.89
2023-05-15T11:48:24.851Z,19.80
2023-05-15T11:50:53.922Z,19.73
2023-05-15T11:53:24.022Z,19.63
2023-05-15T11:55:55.324Z,19.68
2023-05-15T11:58:25.387Z,19.62
2023-05-15T12:00:54.732Z,19.59
2023-05-15T12:03:25.024Z,19.47
2023-05-15T12:05:59.436Z,19.41
2023-05-15T12:08:32.887Z,19.38
2023-05-15T12:11:03.127Z,19.42
2023-05-15T12:13:32.189Z,19.46
2023-05-15T12:16:00.926Z,19.50
2023-05-15T12:18:28.976Z,19.57
2023-05-15T12:20:57.536Z,19.59
2023-05-15T12:23:28.519Z,19.59
2023-05-15T12:26:00.381Z,19.59
2023-05-15T12:28:30.552Z,19.39
2023-05-15T12:30:59.518Z,19.45
2023-05-15T12:33:27.769Z,19.46
2023-05-15T12:36:01.121Z,19.67
2023-05-15T12:38:30.540Z,19.58
2023-05-15T12:40:58.949Z,19.55
2023-05-15T12:43:27.608Z,19.57
2023-05-15T12:45:57.826Z,19.53
2023-05-15T12:48:31.129Z,19.38
2023-05-15T12:51:06.084Z,19.30
2023-05-15T12:53:34.501Z,19.10
2023-05-15T12:56:02.905Z,18.92
2023-05-15T12:58:31.222Z,18.88
2023-05-15T13:01:02.860Z,18.82
2023-05-15T13:03:31.929Z,18.68
2023-05-15T13:06:00.546Z,18.54
2023-05-15T13:08:29.136Z,18.54
2023-05-15T13:10:58.144Z,18.45
2023-05-15T13:13:39.809Z,18.39
2023-05-15T13:16:19.341Z,18.46
2023-05-15T13:18:47.533Z,18.45
2023-05-15T13:21:15.722Z,18.39
2023-05-15T13:23:43.757Z,18.19
2023-05-15T13:26:11.831Z,18.09
2023-05-15T13:28:39.898Z,17.90
2023-05-15T13:31:09.311Z,17.89
2023-05-15T13:33:37.576Z,17.81
2023-05-15T13:36:06.238Z,17.93
2023-05-15T13:38:34.537Z,18.07
2023-05-15T13:41:02.639Z,17.92
2023-05-15T13:43:30.656Z,17.96
2023-05-15T13:45:58.659Z,17.95
2023-05-15T13:48:28.119Z,18.05
2023-05-15T13:50:56.105Z,18.09
2023-05-15T13:53:24.155Z,18.25
2023-05-15T13:55:52.991Z,18.34
2023-05-15T13:58:21.317Z,18.32
2023-05-15T14:00:49.924Z,18.45
2023-05-15T14:03:18.102Z,18.66
2023-05-15T14:05:47.539Z,18.97
2023-05-15T14:08:15.947Z,18.99
2023-05-15T14:10:44.480Z,19.32
2023-05-15T14:13:12.461Z,20.24
2023-05-15T14:15:40.610Z,21.56
2023-05-15T14:18:08.866Z,22.92
2023-05-15T14:20:36.872Z,22.44
2023-05-15T14:23:06.218Z,22.73
2023-05-15T14:25:34.232Z,23.81
2023-05-15T14:28:02.385Z,24.09
2023-05-15T14:30:30.433Z,23.93
2023-05-15T14:32:58.472Z,23.57
2023-05-15T14:35:26.492Z,24.10
2023-05-15T14:37:54.505Z,24.60
2023-05-15T14:40:24.209Z,24.07
2023-05-15T14:42:52.480Z,24.82
2023-05-15T14:45:20.476Z,24.31
2023-05-15T14:47:48.518Z,23.70
2023-05-15T14:50:16.560Z,22.89
2023-05-15T14:52:44.566Z,23.31
2023-05-15T14:55:12.599Z,23.13
2023-05-15T14:57:42.130Z,24.28
2023-05-15T15:00:11.232Z,24.41
2023-05-15T15:02:39.305Z,23.90
2023-05-15T15:05:08.303Z,24.06
2023-05-15T15:08:01.622Z,25.23
2023-05-15T15:10:29.749Z,24.74
2023-05-15T15:12:59.542Z,24.60
2023-05-15T15:15:28.354Z,23.27
2023-05-15T15:17:57.289Z,22.47
2023-05-15T15:20:26.517Z,22.48
2023-05-15T15:22:55.534Z,22.20
2023-05-15T15:25:23.936Z,21.65
2023-05-15T15:27:52.542Z,21.24
2023-05-15T15:30:22.339Z,20.75
2023-05-15T15:32:50.522Z,20.65
2023-05-15T15:35:18.541Z,20.56
2023-05-15T15:37:46.646Z,20.62
2023-05-15T15:40:15.028Z,20.43
2023-05-15T15:42:43.130Z,20.38
2023-05-15T15:45:11.394Z,20.16
2023-05-15T15:47:40.840Z,20.23
2023-05-15T15:50:09.502Z,20.15
2023-05-15T15:52:37.549Z,21.12
2023-05-15T15:55:06.397Z,21.15
2023-05-15T15:57:34.618Z,20.68
2023-05-15T16:00:02.726Z,20.21
2023-05-15T16:02:30.876Z,20.23
2023-05-15T16:05:00.360Z,19.99
2023-05-15T16:07:28.349Z,20.69
2023-05-15T16:10:10.050Z,20.34
2023-05-15T16:12:42.355Z,20.10
2023-05-15T16:17:42.133Z,19.64
2023-05-15T16:20:12.424Z,20.33
2023-05-15T16:22:41.795Z,21.04
2023-05-15T16:25:10.279Z,21.57
2023-05-15T16:27:38.256Z,21.96
2023-05-15T16:30:07.290Z,20.98
2023-05-15T16:32:35.440Z,20.15
2023-05-15T16:35:03.689Z,19.80
2023-05-15T16:37:33.044Z,19.32
2023-05-15T16:40:01.029Z,18.83
2023-05-15T16:42:29.065Z,18.76
2023-05-15T16:44:57.118Z,18.89
2023-05-15T16:47:25.202Z,19.67
2023-05-15T16:49:53.233Z,19.89
2023-05-15T16:52:21.459Z,20.11
2023-05-15T16:54:51.038Z,20.12
2023-05-15T16:57:19.008Z,20.92
2023-05-15T16:59:47.150Z,20.96
2023-05-15T17:02:15.270Z,21.53
2023-05-15T17:04:43.310Z,21.84
2023-05-15T17:07:11.345Z,20.91
2023-05-15T17:09:40.596Z,20.60
2023-05-15T17:12:10.138Z,20.04
2023-05-15T17:14:38.188Z,19.84
2023-05-15T17:17:06.266Z,19.47
2023-05-15T17:19:34.994Z,18.82
2023-05-15T17:22:03.160Z,18.34
2023-05-15T17:24:48.873Z,18.04
2023-05-15T17:27:20.517Z,18.05
2023-05-15T17:29:49.184Z,17.64
2023-05-15T17:32:18.169Z,17.42
2023-05-15T17:34:46.853Z,17.38
2023-05-15T17:37:15.253Z,17.12
2023-05-15T17:39:43.378Z,17.05
2023-05-15T17:42:11.458Z,17.12
2023-05-15T17:44:41.005Z,16.93
2023-05-15T17:47:10.261Z,16.79
2023-05-15T17:49:39.225Z,16.75
2023-05-15T17:52:07.924Z,16.65
2023-05-15T17:54:36.017Z,16.69
2023-05-15T17:57:04.606Z,16.41
2023-05-15T17:59:32.633Z,16.12
2023-05-15T18:02:02.514Z,16.06
2023-05-15T18:04:30.617Z,16.08
2023-05-15T18:06:58.631Z,15.74
2023-05-15T18:09:27.012Z,15.62
2023-05-15T18:11:55.018Z,15.43
2023-05-15T18:14:23.154Z,15.35
2023-05-15T18:16:51.373Z,15.18
2023-05-15T18:19:20.980Z,15.06
2023-05-15T18:21:49.346Z,15.03
2023-05-15T18:24:17.361Z,15.02
2023-05-15T18:26:45.417Z,14.83
2023-05-15T18:29:13.708Z,14.62
2023-05-15T18:31:41.771Z,14.49
2023-05-15T18:34:09.813Z,14.25
2023-05-15T18:36:39.251Z,14.22
2023-05-15T18:39:07.280Z,14.11
2023-05-15T18:41:35.330Z,13.78
2023-05-15T18:44:03.458Z,13.44
2023-05-15T18:46:31.841Z,13.32
2023-05-15T18:48:59.985Z,13.17
2023-05-15T18:51:28.242Z,13.17
2023-05-15T18:53:57.572Z,12.93
2023-05-15T18:56:25.980Z,12.90
2023-05-15T18:58:55.207Z,12.75
2023-05-15T19:01:23.269Z,12.81
2023-05-15T19:03:51.376Z,12.53
2023-05-15T19:06:20.261Z,12.55
2023-05-15T19:08:49.058Z,12.63
2023-05-15T19:11:18.630Z,12.59
2023-05-15T19:13:46.680Z,12.53
2023-05-15T19:16:14.808Z,12.46
2023-05-15T19:18:42.973Z,12.44
2023-05-15T19:21:11.314Z,12.32
2023-05-15T19:23:39.349Z,12.23
2023-05-15T19:26:07.334Z,12.24
2023-05-15T19:28:36.937Z,12.13
2023-05-15T19:31:05.639Z,12.11
2023-05-15T19:33:36.250Z,12.02
2023-05-15T19:36:04.248Z,11.92
2023-05-15T19:38:32.250Z,11.84
2023-05-15T19:41:00.323Z,11.83
2023-05-15T19:43:28.575Z,11.84
2023-05-15T19:45:58.124Z,11.69
2023-05-15T19:48:26.117Z,11.64
2023-05-15T19:50:54.289Z,11.68
2023-05-15T19:53:22.349Z,11.53
2023-05-15T19:55:50.482Z,11.49
2023-05-15T19:58:20.838Z,11.28
2023-05-15T20:00:52.564Z,11.02
2023-05-15T20:03:22.215Z,11.13
2023-05-15T20:05:50.345Z,11.15
2023-05-15T20:08:18.342Z,10.98
2023-05-15T20:10:51.786Z,10.82
2023-05-15T20:13:19.941Z,10.84
2023-05-15T20:15:48.783Z,10.84
2023-05-15T20:18:17.214Z,10.66
2023-05-15T20:20:46.556Z,10.67
2023-05-15T20:23:14.555Z,10.48
2023-05-15T20:25:42.640Z,10.26
2023-05-15T20:28:10.638Z,10.24
2023-05-15T20:30:38.750Z,10.41
2023-05-15T20:33:07.075Z,10.47
2023-05-15T20:35:35.232Z,10.40
2023-05-15T20:38:04.648Z,10.30
2023-05-15T20:40:32.632Z,10.15
2023-05-15T20:43:01.269Z,10.14
2023-05-15T20:45:29.461Z,10.18
2023-05-15T20:47:57.606Z,10.30
2023-05-15T20:50:27.093Z,10.29
2023-05-15T20:52:55.720Z,10.18
2023-05-15T20:55:25.144Z,10.09
2023-05-15T20:57:53.123Z,10.07
2023-05-15T21:00:21.174Z,9.95
2023-05-15T21:02:49.257Z,10.06
2023-05-15T21:05:17.264Z,9.90
2023-05-15T21:07:45.335Z,10.01
2023-05-15T21:10:13.364Z,9.90
2023-05-15T21:12:42.747Z,9.97
2023-05-15T21:15:11.367Z,9.76
2023-05-15T21:17:39.829Z,9.77
2023-05-15T21:20:09.288Z,9.77
2023-05-15T21:22:37.262Z,9.73
2023-05-15T21:25:06.000Z,9.77
2023-05-15T21:27:33.986Z,9.84
2023-05-15T21:30:03.805Z,9.71
2023-05-15T21:32:31.861Z,9.72
2023-05-15T21:34:59.847Z,9.69
2023-05-15T21:37:28.106Z,9.57
2023-05-15T21:39:56.389Z,9.59
2023-05-15T21:42:24.447Z,9.63
2023-05-15T21:44:52.407Z,9.57
2023-05-15T21:47:21.761Z,9.61
2023-05-15T21:49:49.755Z,9.55
2023-05-15T21:52:17.757Z,9.63
2023-05-15T21:54:46.493Z,9.63
2023-05-15T21:57:14.479Z,9.47
2023-05-15T21:59:42.491Z,9.60
2023-05-15T22:02:10.793Z,9.64
2023-05-15T22:04:40.216Z,9.64
2023-05-15T22:07:08.268Z,9.56
2023-05-15T22:09:36.301Z,9.52
2023-05-15T22:12:04.660Z,9.42
2023-05-15T22:14:32.753Z,9.31
2023-05-15T22:17:00.726Z,9.38
2023-05-15T22:19:33.219Z,9.43
2023-05-15T22:22:04.479Z,9.27
2023-05-15T22:24:32.512Z,9.25
2023-05-15T22:27:00.663Z,9.30
2023-05-15T22:29:28.682Z,9.33
2023-05-15T22:31:57.428Z,9.24
2023-05-15T22:34:28.866Z,9.30
2023-05-15T22:36:56.868Z,9.21
2023-05-15T22:39:26.252Z,9.26
2023-05-15T22:41:54.255Z,9.22
2023-05-15T22:44:22.442Z,9.20
2023-05-15T22:46:50.650Z,9.21
2023-05-15T22:49:25.361Z,9.30
2023-05-15T22:51:54.936Z,9.32
2023-05-15T22:54:23.433Z,9.35
2023-05-15T22:56:53.600Z,9.36
2023-05-15T22:59:22.084Z,9.34
2023-05-15T23:01:51.373Z,9.41
2023-05-15T23:04:19.760Z,9.38
2023-05-15T23:06:47.930Z,9.26
2023-05-15T23:09:15.901Z,9.28
2023-05-15T23:11:43.866Z,9.37
2023-05-15T23:14:15.832Z,9.37
2023-05-15T23:16:44.217Z,9.36
2023-05-15T23:19:12.249Z,9.40
2023-05-15T23:21:40.277Z,9.41
2023-05-15T23:24:08.369Z,9.45
2023-05-15T23:26:36.365Z,9.39
2023-05-15T23:29:04.397Z,9.36
2023-05-15T23:31:33.913Z,9.45
2023-05-15T23:34:01.949Z,9.45
2023-05-15T23:36:30.044Z,9.46
2023-05-15T23:38:57.994Z,9.50
2023-05-15T23:41:26.325Z,9.51
2023-05-15T23:43:54.789Z,9.52
2023-05-15T23:46:22.781Z,9.55
2023-05-15T23:48:52.180Z,9.66
2023-05-15T23:51:20.532Z,9.64
2023-05-15T23:53:48.534Z,9.58
2023-05-15T23:56:16.564Z,9.56
2023-05-15T23:58:44.541Z,9.50
